createdAt,value
2022-09-15T00:02:16.319Z,55.50
2022-09-15T00:05:06.349Z,53.28
2022-09-15T00:07:53.815Z,53.60
2022-09-15T00:10:49.654Z,56.05
2022-09-15T00:13:42.442Z,56.25
2022-09-15T00:16:34.802Z,55.58
2022-09-15T00:19:24.865Z,63.13
2022-09-15T00:22:16.789Z,54.00
2022-09-15T00:25:07.048Z,48.47
2022-09-15T00:27:56.812Z,53.20
2022-09-15T00:30:48.277Z,51.08
2022-09-15T00:33:37.961Z,48.38
2022-09-15T00:36:27.707Z,49.28
2022-09-15T00:39:17.362Z,51.50
2022-09-15T00:42:07.023Z,44.75
2022-09-15T00:45:00.392Z,47.20
2022-09-15T00:47:48.896Z,43.25
2022-09-15T00:50:39.319Z,39.00
2022-09-15T00:53:28.202Z,38.80
2022-09-15T00:56:18.245Z,40.58
2022-09-15T00:59:08.334Z,42.97
2022-09-15T01:02:01.354Z,36.95
2022-09-15T01:04:52.772Z,38.13
2022-09-15T01:07:46.973Z,45.50
2022-09-15T01:10:38.093Z,40.65
2022-09-15T01:13:30.549Z,39.45
2022-09-15T01:16:23.857Z,36.65
2022-09-15T01:19:22.202Z,39.45
2022-09-15T01:22:15.086Z,40.28
2022-09-15T01:25:07.884Z,40.80
2022-09-15T01:28:21.529Z,37.90
2022-09-15T01:31:15.576Z,36.85
2022-09-15T01:34:06.473Z,39.53
2022-09-15T01:36:58.107Z,39.13
2022-09-15T01:39:47.013Z,43.17
2022-09-15T01:42:36.236Z,38.00
2022-09-15T01:45:26.209Z,37.92
2022-09-15T01:48:15.956Z,39.38
2022-09-15T01:51:04.983Z,36.53
2022-09-15T01:53:53.235Z,36.60
2022-09-15T01:56:42.332Z,33.88
2022-09-15T01:59:30.724Z,40.55
2022-09-15T02:02:21.409Z,41.40
2022-09-15T02:05:14.801Z,33.95
2022-09-15T02:08:06.231Z,45.20
2022-09-15T02:10:58.987Z,48.25
2022-09-15T02:13:49.392Z,42.63
2022-09-15T02:16:37.584Z,36.75
2022-09-15T02:19:31.749Z,35.63
2022-09-15T02:22:25.331Z,34.88
2022-09-15T02:25:14.856Z,43.75
2022-09-15T02:28:04.570Z,38.63
2022-09-15T02:30:52.806Z,34.50
2022-09-15T02:33:42.612Z,37.42
2022-09-15T02:36:30.872Z,35.53
2022-09-15T02:39:21.742Z,40.08
2022-09-15T02:42:09.198Z,44.30
2022-09-15T02:44:56.682Z,40.03
2022-09-15T02:47:43.857Z,42.95
2022-09-15T02:50:31.533Z,43.20
2022-09-15T02:53:18.443Z,45.20
2022-09-15T02:56:08.059Z,38.47
2022-09-15T02:58:55.736Z,37.10
2022-09-15T03:01:43.334Z,43.25
2022-09-15T03:04:30.815Z,48.75
2022-09-15T03:07:18.061Z,50.10
2022-09-15T03:10:05.727Z,48.30
2022-09-15T03:12:56.099Z,51.13
2022-09-15T03:15:43.570Z,52.28
2022-09-15T03:18:30.511Z,44.17
2022-09-15T03:21:18.720Z,49.08
2022-09-15T03:24:06.340Z,52.42
2022-09-15T03:26:53.958Z,57.15
2022-09-15T03:29:43.806Z,57.63
2022-09-15T03:32:31.241Z,60.40
2022-09-15T03:35:19.051Z,56.55
2022-09-15T03:38:06.937Z,51.13
2022-09-15T03:41:04.672Z,51.33
2022-09-15T03:44:42.742Z,54.10
2022-09-15T03:47:55.210Z,58.95
2022-09-15T03:50:48.630Z,91.57
2022-09-15T03:54:09.680Z,81.30
2022-09-15T04:03:46.374Z,59.67
2022-09-15T04:06:36.086Z,53.03
2022-09-15T04:09:24.965Z,52.72
2022-09-15T04:12:17.385Z,45.85
2022-09-15T04:15:14.623Z,56.35
2022-09-15T04:18:04.425Z,58.63
2022-09-15T04:20:53.709Z,53.33
2022-09-15T04:23:41.921Z,61.28
2022-09-15T04:26:41.258Z,51.88
2022-09-15T04:29:31.282Z,51.47
2022-09-15T04:32:19.293Z,56.60
2022-09-15T04:35:07.481Z,53.20
2022-09-15T04:37:57.515Z,54.08
2022-09-15T04:40:47.130Z,55.55
2022-09-15T04:43:36.100Z,56.15
2022-09-15T04:46:24.321Z,50.30
2022-09-15T04:49:14.942Z,49.20
2022-09-15T04:52:06.598Z,54.90
2022-09-15T04:54:58.652Z,50.47
2022-09-15T04:57:47.333Z,56.28
2022-09-15T05:00:36.626Z,58.85
2022-09-15T05:03:24.828Z,62.58
2022-09-15T05:06:14.058Z,63.45
2022-09-15T05:09:01.264Z,54.72
2022-09-15T05:11:50.128Z,58.40
2022-09-15T05:14:37.815Z,57.47
2022-09-15T05:17:26.770Z,57.95
2022-09-15T05:20:14.488Z,54.17
2022-09-15T05:23:01.481Z,51.03
2022-09-15T05:25:55.298Z,63.47
2022-09-15T05:28:44.648Z,57.85
2022-09-15T05:31:33.824Z,52.25
2022-09-15T05:34:21.175Z,50.75
2022-09-15T05:37:09.450Z,57.50
2022-09-15T05:39:59.534Z,49.90
2022-09-15T05:42:47.075Z,54.63
2022-09-15T05:45:35.593Z,61.50
2022-09-15T05:48:23.411Z,65.32
2022-09-15T05:51:11.035Z,47.42
2022-09-15T05:53:58.570Z,50.20
2022-09-15T05:56:45.826Z,52.70
2022-09-15T05:59:36.313Z,51.28
2022-09-15T06:02:25.529Z,52.92
2022-09-15T06:05:13.657Z,46.20
2022-09-15T06:08:01.434Z,46.90
2022-09-15T06:10:48.992Z,50.55
2022-09-15T06:13:43.240Z,49.20
2022-09-15T06:24:14.460Z,43.78
2022-09-15T06:31:01.375Z,55.40
2022-09-15T06:41:18.796Z,52.05
2022-09-15T07:08:56.806Z,66.75
2022-09-15T07:11:45.796Z,62.47
2022-09-15T07:14:32.951Z,71.25
2022-09-15T07:17:20.397Z,64.32
2022-09-15T07:20:09.815Z,70.85
2022-09-15T07:22:57.311Z,66.43
2022-09-15T07:25:45.526Z,71.70
2022-09-15T07:28:35.805Z,74.78
2022-09-15T07:31:24.407Z,72.47
2022-09-15T07:34:12.927Z,76.88
2022-09-15T07:37:00.260Z,71.85
2022-09-15T07:39:48.430Z,67.10
2022-09-15T07:42:37.158Z,60.03
2022-09-15T07:45:26.095Z,70.55
2022-09-15T07:48:13.478Z,69.95
2022-09-15T07:51:01.352Z,67.90
2022-09-15T07:53:49.790Z,63.17
2022-09-15T07:56:38.718Z,60.47
2022-09-15T07:59:26.984Z,60.38
2022-09-15T08:02:19.008Z,50.88
2022-09-15T08:05:06.377Z,55.58
2022-09-15T08:07:54.085Z,34.83
2022-09-15T08:10:42.428Z,32.70
2022-09-15T08:13:31.023Z,33.60
2022-09-15T08:16:19.671Z,38.65
2022-09-15T08:19:09.657Z,34.03
2022-09-15T08:21:57.348Z,33.45
2022-09-15T08:24:45.346Z,30.98
2022-09-15T08:27:33.270Z,30.98
2022-09-15T08:30:24.243Z,30.05
2022-09-15T08:33:11.781Z,34.35
2022-09-15T08:36:07.152Z,27.48
2022-09-15T08:38:54.938Z,27.98
2022-09-15T08:41:44.837Z,26.55
2022-09-15T08:44:36.549Z,28.77
2022-09-15T08:47:26.135Z,23.48
2022-09-15T08:50:17.695Z,22.88
2022-09-15T08:53:10.103Z,15.18
2022-09-15T08:56:00.549Z,21.02
2022-09-15T08:58:48.213Z,21.15
2022-09-15T09:01:43.315Z,25.40
2022-09-15T09:04:42.122Z,24.65
2022-09-15T09:07:36.327Z,23.90
2022-09-15T09:10:32.261Z,22.98
2022-09-15T09:13:33.329Z,24.13
2022-09-15T09:16:31.179Z,26.52
2022-09-15T09:19:33.310Z,18.88
2022-09-15T09:22:27.688Z,23.33
2022-09-15T09:28:30.545Z,25.60
2022-09-15T09:31:20.032Z,22.23
2022-09-15T09:34:13.751Z,19.08
2022-09-15T09:37:02.598Z,17.50
2022-09-15T09:39:50.181Z,22.48
2022-09-15T09:42:38.515Z,21.58
2022-09-15T09:45:27.610Z,21.00
2022-09-15T09:48:17.122Z,12.35
2022-09-15T09:51:04.076Z,11.60
2022-09-15T09:53:54.784Z,13.43
2022-09-15T09:56:42.322Z,14.45
2022-09-15T09:59:34.991Z,12.25
2022-09-15T10:02:27.098Z,11.32
2022-09-15T10:05:19.643Z,15.82
2022-09-15T10:08:07.338Z,12.57
2022-09-15T10:10:56.260Z,21.90
2022-09-15T10:13:52.566Z,15.57
2022-09-15T10:16:40.173Z,14.40
2022-09-15T10:19:29.858Z,14.18
2022-09-15T10:22:24.984Z,17.33
2022-09-15T10:25:49.267Z,18.55
2022-09-15T10:28:39.034Z,13.82
2022-09-15T10:31:28.906Z,13.27
2022-09-15T10:34:26.962Z,15.13
2022-09-15T10:37:19.773Z,10.15
2022-09-15T10:40:18.955Z,13.00
2022-09-15T10:43:14.476Z,10.20
2022-09-15T10:46:04.096Z,11.48
2022-09-15T10:48:58.754Z,15.23
2022-09-15T10:51:50.199Z,12.02
2022-09-15T10:54:48.306Z,13.48
2022-09-15T10:57:43.880Z,12.73
2022-09-15T11:00:35.994Z,11.80
2022-09-15T11:03:28.759Z,18.75
2022-09-15T11:06:20.592Z,12.68
2022-09-15T11:09:13.499Z,12.25
2022-09-15T11:12:09.511Z,13.90
2022-09-15T11:15:12.563Z,13.55
2022-09-15T11:18:05.558Z,9.68
2022-09-15T11:21:01.066Z,11.80
2022-09-15T11:23:53.011Z,13.23
2022-09-15T11:26:42.417Z,14.82
2022-09-15T11:29:33.499Z,11.15
2022-09-15T11:32:23.224Z,15.27
2022-09-15T11:35:31.471Z,13.20
2022-09-15T11:38:22.836Z,14.90
2022-09-15T11:41:18.267Z,12.88
2022-09-15T11:44:08.733Z,12.05
2022-09-15T11:47:08.661Z,15.60
2022-09-15T11:49:57.423Z,11.38
2022-09-15T11:52:48.237Z,9.10
2022-09-15T11:55:36.899Z,13.48
2022-09-15T11:58:27.319Z,8.00
2022-09-15T12:01:16.527Z,11.63
2022-09-15T12:04:06.536Z,8.20
2022-09-15T12:06:56.272Z,5.28
2022-09-15T12:09:43.604Z,7.25
2022-09-15T12:12:31.453Z,5.57
2022-09-15T12:15:19.972Z,4.60
2022-09-15T12:18:34.401Z,8.38
2022-09-15T12:21:26.005Z,5.55
2022-09-15T12:24:14.771Z,9.25
2022-09-15T12:27:02.368Z,10.52
2022-09-15T12:29:50.186Z,6.32
2022-09-15T12:32:38.128Z,12.38
2022-09-15T12:35:32.702Z,6.05
2022-09-15T12:38:24.713Z,7.25
2022-09-15T12:41:12.567Z,7.03
2022-09-15T12:44:02.990Z,8.68
2022-09-15T12:46:55.214Z,7.32
2022-09-15T12:49:44.532Z,7.38
2022-09-15T12:52:31.509Z,7.80
2022-09-15T12:55:22.668Z,8.45
2022-09-15T12:58:11.283Z,9.35
2022-09-15T13:01:31.322Z,10.70
2022-09-15T13:04:26.982Z,7.10
2022-09-15T13:07:29.187Z,7.28
2022-09-15T13:10:32.078Z,7.53
2022-09-15T13:13:23.756Z,8.85
2022-09-15T13:16:13.514Z,6.03
2022-09-15T13:19:07.420Z,9.32
2022-09-15T13:21:58.871Z,7.68
2022-09-15T13:24:48.449Z,7.55
2022-09-15T13:27:38.413Z,11.13
2022-09-15T13:30:31.736Z,6.88
2022-09-15T13:35:02.405Z,7.75
2022-09-15T13:39:59.633Z,6.22
2022-09-15T13:42:52.806Z,7.88
2022-09-15T13:45:46.358Z,13.00
2022-09-15T13:48:43.030Z,9.63
2022-09-15T13:51:31.133Z,7.53
2022-09-15T13:54:20.029Z,12.90
2022-09-15T13:57:07.495Z,7.30
2022-09-15T13:59:57.095Z,12.05
2022-09-15T14:02:45.718Z,10.15
2022-09-15T14:05:35.108Z,8.45
2022-09-15T14:08:24.002Z,8.20
2022-09-15T14:11:13.535Z,9.43
2022-09-15T14:14:01.543Z,8.85
2022-09-15T14:16:51.407Z,8.77
2022-09-15T14:19:39.707Z,9.45
2022-09-15T14:22:28.402Z,9.73
2022-09-15T14:25:16.762Z,6.97
2022-09-15T14:28:04.724Z,12.77
2022-09-15T14:30:52.064Z,8.50
2022-09-15T14:33:41.327Z,6.80
2022-09-15T14:36:29.811Z,9.02
2022-09-15T14:39:19.190Z,5.53
2022-09-15T14:42:10.916Z,9.82
2022-09-15T14:48:07.928Z,5.85
2022-09-15T14:51:02.768Z,5.10
2022-09-15T14:53:50.582Z,7.82
2022-09-15T14:56:38.795Z,5.70
2022-09-15T14:59:28.170Z,7.85
2022-09-15T15:02:22.206Z,7.13
2022-09-15T15:05:11.177Z,4.75
2022-09-15T15:08:01.025Z,6.20
2022-09-15T15:10:48.770Z,8.95
2022-09-15T15:13:36.502Z,7.18
2022-09-15T15:16:25.543Z,6.40
2022-09-15T15:19:30.964Z,6.88
2022-09-15T15:22:21.119Z,6.03
2022-09-15T15:25:23.756Z,10.38
2022-09-15T15:28:25.827Z,4.90
2022-09-15T15:31:15.210Z,5.72
2022-09-15T15:34:05.410Z,7.50
2022-09-15T15:36:52.316Z,5.20
2022-09-15T15:39:39.797Z,5.57
2022-09-15T15:42:29.306Z,5.43
2022-09-15T15:45:25.153Z,3.97
2022-09-15T15:48:12.710Z,4.72
2022-09-15T15:51:00.690Z,5.82
2022-09-15T15:53:48.166Z,6.18
2022-09-15T15:56:38.063Z,5.72
2022-09-15T15:59:27.916Z,5.85
2022-09-15T16:02:16.526Z,5.82
2022-09-15T16:05:03.997Z,4.57
2022-09-15T16:07:52.804Z,6.85
2022-09-15T16:10:41.896Z,7.72
2022-09-15T16:13:29.079Z,9.10
2022-09-15T16:16:19.919Z,6.80
2022-09-15T16:19:08.746Z,6.43
2022-09-15T16:21:55.697Z,7.82
2022-09-15T16:24:43.076Z,5.32
2022-09-15T16:27:30.820Z,7.82
2022-09-15T16:30:17.822Z,5.57
2022-09-15T16:33:06.842Z,6.32
2022-09-15T16:35:55.371Z,5.95
2022-09-15T16:38:42.708Z,4.78
2022-09-15T16:41:29.827Z,5.85
2022-09-15T16:44:18.958Z,5.30
2022-09-15T16:47:07.487Z,4.82
2022-09-15T16:49:55.611Z,6.22
2022-09-15T16:52:42.966Z,6.85
2022-09-15T16:55:33.652Z,5.78
2022-09-15T16:58:22.495Z,6.25
2022-09-15T17:01:16.797Z,4.00
2022-09-15T17:04:06.271Z,4.93
2022-09-15T17:06:55.588Z,4.80
2022-09-15T17:09:42.691Z,6.18
2022-09-15T17:12:30.647Z,4.75
2022-09-15T17:15:20.607Z,2.80
2022-09-15T17:18:08.988Z,4.75
2022-09-15T17:20:56.558Z,4.35
2022-09-15T17:23:46.405Z,3.80
2022-09-15T17:26:33.377Z,4.70
2022-09-15T17:29:20.600Z,2.42
2022-09-15T17:32:09.894Z,4.38
2022-09-15T17:34:56.727Z,7.45
2022-09-15T17:37:44.048Z,4.95
2022-09-15T17:40:33.481Z,3.60
2022-09-15T17:43:21.774Z,6.97
2022-09-15T17:46:09.443Z,6.07
2022-09-15T17:48:56.709Z,3.92
2022-09-15T17:51:43.949Z,5.38
2022-09-15T17:54:31.317Z,7.10
2022-09-15T17:57:19.818Z,3.67
2022-09-15T18:00:07.955Z,5.07
2022-09-15T18:02:56.452Z,4.38
2022-09-15T18:05:43.584Z,4.65
2022-09-15T18:08:31.715Z,4.38
2022-09-15T18:11:18.963Z,3.42
2022-09-15T18:14:08.322Z,4.65
2022-09-15T18:16:55.556Z,4.30
2022-09-15T18:19:43.101Z,3.72
2022-09-15T18:22:30.567Z,4.55
2022-09-15T18:25:19.904Z,5.40
2022-09-15T18:28:07.666Z,5.63
2022-09-15T18:30:57.328Z,5.68
2022-09-15T18:33:44.772Z,6.25
2022-09-15T18:36:32.297Z,5.10
2022-09-15T18:39:20.332Z,5.93
2022-09-15T18:42:07.899Z,2.50
2022-09-15T18:44:55.759Z,3.47
2022-09-15T18:47:44.667Z,4.88
2022-09-15T18:50:33.474Z,4.70
2022-09-15T18:53:20.651Z,4.97
2022-09-15T18:56:11.671Z,4.22
2022-09-15T18:58:59.206Z,3.67
2022-09-15T19:01:46.738Z,6.35
2022-09-15T19:04:40.445Z,6.45
2022-09-15T19:10:17.807Z,3.50
2022-09-15T19:13:05.002Z,4.88
2022-09-15T19:15:53.594Z,5.53
2022-09-15T19:18:41.407Z,5.45
2022-09-15T19:21:29.630Z,4.10
2022-09-15T19:24:17.501Z,4.78
2022-09-15T19:27:05.695Z,5.80
2022-09-15T19:29:53.473Z,6.30
2022-09-15T19:32:41.053Z,5.78
2022-09-15T19:35:28.524Z,5.47
2022-09-15T19:38:18.322Z,5.63
2022-09-15T19:41:06.791Z,5.15
2022-09-15T19:43:54.644Z,4.47
2022-09-15T19:46:41.830Z,4.40
2022-09-15T19:49:28.950Z,4.05
2022-09-15T19:52:15.987Z,6.15
2022-09-15T19:55:04.823Z,5.80
2022-09-15T19:57:51.777Z,4.80
2022-09-15T20:00:38.722Z,4.88
2022-09-15T20:03:27.131Z,5.78
2022-09-15T20:06:14.135Z,2.08
2022-09-15T20:09:01.235Z,9.50
2022-09-15T20:11:50.586Z,4.75
2022-09-15T20:14:38.009Z,5.22
2022-09-15T20:17:25.372Z,3.92
2022-09-15T20:20:13.867Z,6.45
2022-09-15T20:23:01.059Z,4.03
2022-09-15T20:25:58.465Z,4.70
2022-09-15T20:28:47.686Z,4.93
2022-09-15T20:31:35.756Z,3.67
2022-09-15T20:34:22.910Z,6.43
2022-09-15T20:37:10.641Z,3.92
2022-09-15T20:39:59.012Z,4.22
2022-09-15T20:42:47.686Z,5.45
2022-09-15T20:45:37.298Z,4.38
2022-09-15T20:48:25.175Z,8.32
2022-09-15T20:51:13.511Z,7.53
2022-09-15T20:54:02.162Z,4.90
2022-09-15T20:56:49.402Z,3.15
2022-09-15T20:59:36.813Z,4.38
2022-09-15T21:02:26.014Z,9.93
2022-09-15T21:05:12.971Z,5.00
2022-09-15T21:08:00.143Z,5.68
2022-09-15T21:10:49.285Z,5.25
2022-09-15T21:13:37.184Z,4.28
2022-09-15T21:16:25.843Z,5.38
2022-09-15T21:19:14.687Z,5.60
2022-09-15T21:22:01.742Z,6.57
2022-09-15T21:24:48.631Z,5.78
2022-09-15T21:27:35.734Z,5.40
2022-09-15T21:30:23.135Z,6.53
2022-09-15T21:33:10.474Z,6.82
2022-09-15T21:36:05.134Z,4.40
2022-09-15T21:38:53.269Z,5.18
2022-09-15T21:41:40.743Z,5.25
2022-09-15T21:44:27.794Z,5.88
2022-09-15T21:47:15.353Z,7.72
2022-09-15T21:50:03.290Z,4.50
2022-09-15T21:52:51.878Z,3.72
2022-09-15T21:55:39.135Z,4.75
2022-09-15T21:58:26.934Z,5.55
2022-09-15T22:01:14.872Z,4.40
2022-09-15T22:04:02.539Z,5.38
2022-09-15T22:06:50.568Z,3.53
2022-09-15T22:09:40.255Z,9.63
2022-09-15T22:12:27.807Z,3.22
2022-09-15T22:15:16.008Z,8.48
2022-09-15T22:18:03.254Z,7.53
2022-09-15T22:20:52.610Z,6.18
2022-09-15T22:23:39.988Z,4.20
2022-09-15T22:26:29.907Z,9.70
2022-09-15T22:29:16.906Z,6.13
2022-09-15T22:32:04.147Z,4.75
2022-09-15T22:34:51.237Z,5.95
2022-09-15T22:37:38.759Z,6.95
2022-09-15T22:40:26.060Z,5.88
2022-09-15T22:43:14.288Z,9.20
2022-09-15T22:46:01.796Z,6.13
2022-09-15T22:48:49.335Z,6.10
2022-09-15T22:51:36.896Z,4.43
2022-09-15T22:54:24.014Z,4.22
2022-09-15T22:57:11.954Z,6.00
2022-09-15T23:00:00.767Z,6.90
2022-09-15T23:02:48.558Z,2.95
2022-09-15T23:05:35.762Z,3.55
2022-09-15T23:08:22.908Z,4.10
2022-09-15T23:11:11.312Z,8.15
2022-09-15T23:13:58.500Z,2.17
2022-09-15T23:16:47.441Z,5.45
2022-09-15T23:19:35.609Z,7.32
2022-09-15T23:22:23.977Z,4.88
2022-09-15T23:25:11.815Z,4.82
2022-09-15T23:27:59.211Z,3.40
2022-09-15T23:30:46.955Z,2.80
2022-09-15T23:33:35.702Z,3.33
2022-09-15T23:36:23.540Z,4.47
2022-09-15T23:39:10.415Z,7.95
2022-09-15T23:41:57.509Z,2.08
2022-09-15T23:44:44.686Z,5.07
2022-09-15T23:47:32.279Z,3.75
2022-09-15T23:50:21.024Z,3.83
2022-09-15T23:53:08.791Z,2.88
2022-09-15T23:55:55.992Z,3.72
2022-09-15T23:58:42.861Z,3.72
